Check out our new PWSWeather beta!
PWSweather.com
Personal Weather Stations
Station Observations
PICKERING
North Yorkshire, PickeringGB

North YorkshirePickeringGB

Lat: 54.2494, Lon: -0.7725

Elevation: 192

Station Type: Oregon Scientific WMR100

High Low Average
Temperature 78.1°F25.6°C 56.5°F13.6°C 64.4°F18.0°C
Dew Point 57.2°F14.0°C 46.4°F8.0°C 51.8°F11.0°C
Winds 10.3 mph 16.6 kmh Calm Calm 4.0 mph SW6.4 kmh SW
Wind Gusts 17.2 mph27.7 kmh -- 8.0 mph12.9 kmh
Humidity 80% 44% 64%
Pressure 29.62 in1003.0 mb 29.47 in998.0 mb -
Precipitation 0.00 in0.0 mm - -
Hour Temp Dew Point Humidity Winds Wind Gusts Pressure Precip Precip Rate Daily Precip Total
12:00 AM 59.5°F15.3°C 50.0°F10.0°C 71% 3.4 mph S5.5 kmh S 5.8 mph9.3 kmh 29.50 in999.0 mb 0.00 in0.0 mm 0.00 in0.0 mm 0.00 in0.0 mm
12:05 AM 59.4°F15.2°C 51.8°F11.0°C 72% 3.3 mph S5.3 kmh S 4.7 mph7.6 kmh 29.50 in999.0 mb 0.00 in0.0 mm 0.00 in0.0 mm 0.00 in0.0 mm
12:10 AM 59.4°F15.2°C 50.0°F10.0°C 71% 3.5 mph S5.6 kmh S 5.4 mph8.7 kmh 29.50 in999.0 mb 0.00 in0.0 mm 0.00 in0.0 mm 0.00 in0.0 mm
12:15 AM 59.4°F15.2°C 51.8°F11.0°C 72% 3.4 mph S5.5 kmh S 5.4 mph8.7 kmh 29.50 in999.0 mb 0.00 in0.0 mm 0.00 in0.0 mm 0.00 in0.0 mm
12:20 AM 59.2°F15.1°C 50.0°F10.0°C 72% 2.9 mph S4.7 kmh S 4.7 mph7.6 kmh 29.50 in999.0 mb 0.00 in0.0 mm 0.00 in0.0 mm 0.00 in0.0 mm
12:25 AM 59.2°F15.1°C 50.0°F10.0°C 73% 2.5 mph S4.0 kmh S 4.0 mph6.4 kmh 29.50 in999.0 mb 0.00 in0.0 mm 0.00 in0.0 mm 0.00 in0.0 mm
12:30 AM 59.2°F15.1°C 50.0°F10.0°C 72% 2.6 mph S4.2 kmh S 4.0 mph6.4 kmh 29.50 in999.0 mb 0.00 in0.0 mm 0.00 in0.0 mm 0.00 in0.0 mm
12:35 AM 59.0°F15.0°C 50.0°F10.0°C 73% 3.4 mph S5.5 kmh S 6.3 mph10.1 kmh 29.50 in999.0 mb 0.00 in0.0 mm 0.00 in0.0 mm 0.00 in0.0 mm
12:40 AM 59.0°F15.0°C 50.0°F10.0°C 73% 3.5 mph S5.6 kmh S 6.3 mph10.1 kmh 29.50 in999.0 mb 0.00 in0.0 mm 0.00 in0.0 mm 0.00 in0.0 mm
12:45 AM 59.0°F15.0°C 50.0°F10.0°C 73% 2.9 mph SSW4.7 kmh SSW 4.3 mph6.9 kmh 29.50 in999.0 mb 0.00 in0.0 mm 0.00 in0.0 mm 0.00 in0.0 mm
12:50 AM 59.0°F15.0°C 50.0°F10.0°C 73% 2.6 mph S4.2 kmh S 4.0 mph6.4 kmh 29.50 in999.0 mb 0.00 in0.0 mm 0.00 in0.0 mm 0.00 in0.0 mm
12:55 AM 59.0°F15.0°C 50.0°F10.0°C 73% 2.3 mph SSW3.7 kmh SSW 4.0 mph6.4 kmh 29.47 in998.0 mb 0.00 in0.0 mm 0.00 in0.0 mm 0.00 in0.0 mm
01:00 AM 58.8°F14.9°C 51.8°F11.0°C 74% 1.7 mph SSW2.7 kmh SSW 2.5 mph4.0 kmh 29.47 in998.0 mb 0.00 in0.0 mm 0.00 in0.0 mm 0.00 in0.0 mm
01:05 AM 58.8°F14.9°C 51.8°F11.0°C 74% 1.7 mph SW2.7 kmh SW 3.1 mph5.0 kmh 29.47 in998.0 mb 0.00 in0.0 mm 0.00 in0.0 mm 0.00 in0.0 mm
01:10 AM 58.6°F14.8°C 50.0°F10.0°C 74% 1.6 mph SW2.6 kmh SW 3.1 mph5.0 kmh 29.47 in998.0 mb 0.00 in0.0 mm 0.00 in0.0 mm 0.00 in0.0 mm
01:15 AM 58.8°F14.9°C 51.8°F11.0°C 74% 1.4 mph SW2.3 kmh SW 2.9 mph4.7 kmh 29.47 in998.0 mb 0.00 in0.0 mm 0.00 in0.0 mm 0.00 in0.0 mm
01:20 AM 58.8°F14.9°C 51.8°F11.0°C 75% 1.9 mph SW3.1 kmh SW 3.6 mph5.8 kmh 29.47 in998.0 mb 0.00 in0.0 mm 0.00 in0.0 mm 0.00 in0.0 mm
01:25 AM 58.8°F14.9°C 51.8°F11.0°C 75% 1.9 mph SW3.1 kmh SW 3.6 mph5.8 kmh 29.47 in998.0 mb 0.00 in0.0 mm 0.00 in0.0 mm 0.00 in0.0 mm
01:30 AM 59.0°F15.0°C 51.8°F11.0°C 75% 1.4 mph WSW2.3 kmh WSW 2.9 mph4.7 kmh 29.47 in998.0 mb 0.00 in0.0 mm 0.00 in0.0 mm 0.00 in0.0 mm
01:35 AM 59.0°F15.0°C 51.8°F11.0°C 75% 1.1 mph SW1.8 kmh SW 2.9 mph4.7 kmh 29.47 in998.0 mb 0.00 in0.0 mm 0.00 in0.0 mm 0.00 in0.0 mm
01:40 AM 59.0°F15.0°C 51.8°F11.0°C 75% 0.9 mph SW1.4 kmh SW 2.9 mph4.7 kmh 29.50 in999.0 mb 0.00 in0.0 mm 0.00 in0.0 mm 0.00 in0.0 mm
01:45 AM 59.0°F15.0°C 51.8°F11.0°C 76% 1.2 mph WSW1.9 kmh WSW 3.1 mph5.0 kmh 29.50 in999.0 mb 0.00 in0.0 mm 0.00 in0.0 mm 0.00 in0.0 mm
01:50 AM 59.0°F15.0°C 51.8°F11.0°C 76% 0.8 mph SW1.3 kmh SW 3.1 mph5.0 kmh 29.50 in999.0 mb 0.00 in0.0 mm 0.00 in0.0 mm 0.00 in0.0 mm
01:55 AM 59.0°F15.0°C 51.8°F11.0°C 76% 1.3 mph WSW2.1 kmh WSW 3.6 mph5.8 kmh 29.50 in999.0 mb 0.00 in0.0 mm 0.00 in0.0 mm 0.00 in0.0 mm
02:00 AM 59.0°F15.0°C 51.8°F11.0°C 76% 1.3 mph SW2.1 kmh SW 3.6 mph5.8 kmh 29.50 in999.0 mb 0.00 in0.0 mm 0.00 in0.0 mm 0.00 in0.0 mm
02:05 AM 59.0°F15.0°C 51.8°F11.0°C 76% 0.7 mph SW1.1 kmh SW 2.0 mph3.2 kmh 29.50 in999.0 mb 0.00 in0.0 mm 0.00 in0.0 mm 0.00 in0.0 mm
02:10 AM 59.0°F15.0°C 51.8°F11.0°C 76% 0.4 mph SW0.6 kmh SW 1.6 mph2.6 kmh 29.47 in998.0 mb 0.00 in0.0 mm 0.00 in0.0 mm 0.00 in0.0 mm
02:15 AM 58.8°F14.9°C 51.8°F11.0°C 76% 0.2 mph WSW0.3 kmh WSW 1.1 mph1.8 kmh 29.47 in998.0 mb 0.00 in0.0 mm 0.00 in0.0 mm 0.00 in0.0 mm
02:20 AM 58.8°F14.9°C 51.8°F11.0°C 77% 0.3 mph SSW0.5 kmh SSW 1.1 mph1.8 kmh 29.47 in998.0 mb 0.00 in0.0 mm 0.00 in0.0 mm 0.00 in0.0 mm
02:25 AM 58.6°F14.8°C 51.8°F11.0°C 77% 0.1 mph SSE0.2 kmh SSE 1.1 mph1.8 kmh 29.47 in998.0 mb 0.00 in0.0 mm 0.00 in0.0 mm 0.00 in0.0 mm
02:30 AM 58.5°F14.7°C 51.8°F11.0°C 77% 0.1 mph SSE0.2 kmh SSE 0.9 mph1.4 kmh 29.47 in998.0 mb 0.00 in0.0 mm 0.00 in0.0 mm 0.00 in0.0 mm
02:35 AM 58.5°F14.7°C 51.8°F11.0°C 78% 0.5 mph S0.8 kmh S 1.3 mph2.1 kmh 29.47 in998.0 mb 0.00 in0.0 mm 0.00 in0.0 mm 0.00 in0.0 mm
02:40 AM 58.5°F14.7°C 51.8°F11.0°C 78% 0.6 mph S1.0 kmh S 1.3 mph2.1 kmh 29.47 in998.0 mb 0.00 in0.0 mm 0.00 in0.0 mm 0.00 in0.0 mm
02:45 AM 58.3°F14.6°C 51.8°F11.0°C 77% 1.3 mph S2.1 kmh S 3.8 mph6.1 kmh 29.47 in998.0 mb 0.00 in0.0 mm 0.00 in0.0 mm 0.00 in0.0 mm
02:50 AM 58.1°F14.5°C 51.8°F11.0°C 77% 2.3 mph S3.7 kmh S 3.8 mph6.1 kmh 29.47 in998.0 mb 0.00 in0.0 mm 0.00 in0.0 mm 0.00 in0.0 mm
02:55 AM 57.9°F14.4°C 51.8°F11.0°C 77% 2.4 mph S3.9 kmh S 3.4 mph5.5 kmh 29.47 in998.0 mb 0.00 in0.0 mm 0.00 in0.0 mm 0.00 in0.0 mm
03:00 AM 57.9°F14.4°C 51.8°F11.0°C 78% 2.6 mph S4.2 kmh S 4.3 mph6.9 kmh 29.47 in998.0 mb 0.00 in0.0 mm 0.00 in0.0 mm 0.00 in0.0 mm
03:05 AM 57.7°F14.3°C 51.8°F11.0°C 78% 2.6 mph SSW4.2 kmh SSW 4.3 mph6.9 kmh 29.47 in998.0 mb 0.00 in0.0 mm 0.00 in0.0 mm 0.00 in0.0 mm
03:10 AM 57.7°F14.3°C 51.8°F11.0°C 78% 2.2 mph SSW3.5 kmh SSW 4.0 mph6.4 kmh 29.47 in998.0 mb 0.00 in0.0 mm 0.00 in0.0 mm 0.00 in0.0 mm
03:15 AM 57.6°F14.2°C 51.8°F11.0°C 78% 1.9 mph S3.1 kmh S 3.6 mph5.8 kmh 29.47 in998.0 mb 0.00 in0.0 mm 0.00 in0.0 mm 0.00 in0.0 mm
03:20 AM 57.6°F14.2°C 51.8°F11.0°C 78% 1.7 mph S2.7 kmh S 3.1 mph5.0 kmh 29.47 in998.0 mb 0.00 in0.0 mm 0.00 in0.0 mm 0.00 in0.0 mm
03:25 AM 57.4°F14.1°C 50.0°F10.0°C 78% 2.0 mph S3.2 kmh S 3.1 mph5.0 kmh 29.47 in998.0 mb 0.00 in0.0 mm 0.00 in0.0 mm 0.00 in0.0 mm
03:30 AM 57.2°F14.0°C 50.0°F10.0°C 78% 2.4 mph S3.9 kmh S 4.7 mph7.6 kmh 29.47 in998.0 mb 0.00 in0.0 mm 0.00 in0.0 mm 0.00 in0.0 mm
03:35 AM 57.2°F14.0°C 50.0°F10.0°C 78% 1.5 mph SSW2.4 kmh SSW 4.7 mph7.6 kmh 29.47 in998.0 mb 0.00 in0.0 mm 0.00 in0.0 mm 0.00 in0.0 mm
03:40 AM 57.2°F14.0°C 50.0°F10.0°C 78% 0.5 mph SW0.8 kmh SW 2.0 mph3.2 kmh 29.47 in998.0 mb 0.00 in0.0 mm 0.00 in0.0 mm 0.00 in0.0 mm
03:45 AM 57.4°F14.1°C 50.0°F10.0°C 78% 0.7 mph SW1.1 kmh SW 2.7 mph4.3 kmh 29.47 in998.0 mb 0.00 in0.0 mm 0.00 in0.0 mm 0.00 in0.0 mm
03:50 AM 57.4°F14.1°C 50.0°F10.0°C 78% 0.6 mph SW1.0 kmh SW 2.7 mph4.3 kmh 29.47 in998.0 mb 0.00 in0.0 mm 0.00 in0.0 mm 0.00 in0.0 mm
03:55 AM 57.4°F14.1°C 51.8°F11.0°C 79% 0.3 mph SW0.5 kmh SW 1.3 mph2.1 kmh 29.47 in998.0 mb 0.00 in0.0 mm 0.00 in0.0 mm 0.00 in0.0 mm
04:00 AM 57.4°F14.1°C 51.8°F11.0°C 79% 0.7 mph SSW1.1 kmh SSW 2.5 mph4.0 kmh 29.47 in998.0 mb 0.00 in0.0 mm 0.00 in0.0 mm 0.00 in0.0 mm
04:05 AM 57.4°F14.1°C 51.8°F11.0°C 79% 1.1 mph SW1.8 kmh SW 2.9 mph4.7 kmh 29.47 in998.0 mb 0.00 in0.0 mm 0.00 in0.0 mm 0.00 in0.0 mm
04:10 AM 57.4°F14.1°C 50.0°F10.0°C 78% 1.8 mph SW2.9 kmh SW 5.4 mph8.7 kmh 29.47 in998.0 mb 0.00 in0.0 mm 0.00 in0.0 mm 0.00 in0.0 mm
04:15 AM 57.4°F14.1°C 51.8°F11.0°C 79% 2.3 mph SW3.7 kmh SW 5.4 mph8.7 kmh 29.47 in998.0 mb 0.00 in0.0 mm 0.00 in0.0 mm 0.00 in0.0 mm
04:20 AM 57.4°F14.1°C 51.8°F11.0°C 79% 1.4 mph SW2.3 kmh SW 3.4 mph5.5 kmh 29.47 in998.0 mb 0.00 in0.0 mm 0.00 in0.0 mm 0.00 in0.0 mm
04:25 AM 57.4°F14.1°C 51.8°F11.0°C 79% 1.0 mph SW1.6 kmh SW 2.5 mph4.0 kmh 29.47 in998.0 mb 0.00 in0.0 mm 0.00 in0.0 mm 0.00 in0.0 mm
04:30 AM 57.4°F14.1°C 51.8°F11.0°C 79% 0.9 mph SSW1.4 kmh SSW 2.5 mph4.0 kmh 29.47 in998.0 mb 0.00 in0.0 mm 0.00 in0.0 mm 0.00 in0.0 mm
04:35 AM 57.4°F14.1°C 51.8°F11.0°C 79% 0.7 mph SSE1.1 kmh SSE 2.2 mph3.5 kmh 29.47 in998.0 mb 0.00 in0.0 mm 0.00 in0.0 mm 0.00 in0.0 mm
04:40 AM 57.4°F14.1°C 51.8°F11.0°C 79% 0.5 mph SE0.8 kmh SE 2.2 mph3.5 kmh 29.47 in998.0 mb 0.00 in0.0 mm 0.00 in0.0 mm 0.00 in0.0 mm
04:45 AM 57.2°F14.0°C 51.8°F11.0°C 79% Calm Calm -- 29.47 in998.0 mb 0.00 in0.0 mm 0.00 in0.0 mm 0.00 in0.0 mm
04:50 AM 57.2°F14.0°C 51.8°F11.0°C 79% Calm Calm -- 29.47 in998.0 mb 0.00 in0.0 mm 0.00 in0.0 mm 0.00 in0.0 mm
04:55 AM 57.0°F13.9°C 51.8°F11.0°C 80% 0.3 mph SE0.5 kmh SE 1.3 mph2.1 kmh 29.47 in998.0 mb 0.00 in0.0 mm 0.00 in0.0 mm 0.00 in0.0 mm
05:00 AM 57.0°F13.9°C 51.8°F11.0°C 80% 0.8 mph SE1.3 kmh SE 1.3 mph2.1 kmh 29.47 in998.0 mb 0.00 in0.0 mm 0.00 in0.0 mm 0.00 in0.0 mm
05:05 AM 56.8°F13.8°C 51.8°F11.0°C 80% 1.6 mph SE2.6 kmh SE 2.5 mph4.0 kmh 29.47 in998.0 mb 0.00 in0.0 mm 0.00 in0.0 mm 0.00 in0.0 mm
05:10 AM 56.7°F13.7°C 51.8°F11.0°C 80% 1.9 mph SSE3.1 kmh SSE 2.9 mph4.7 kmh 29.47 in998.0 mb 0.00 in0.0 mm 0.00 in0.0 mm 0.00 in0.0 mm
05:15 AM 56.7°F13.7°C 51.8°F11.0°C 80% 1.6 mph SSE2.6 kmh SSE 3.4 mph5.5 kmh 29.47 in998.0 mb 0.00 in0.0 mm 0.00 in0.0 mm 0.00 in0.0 mm
05:20 AM 56.7°F13.7°C 51.8°F11.0°C 80% 1.2 mph SSE1.9 kmh SSE 3.4 mph5.5 kmh 29.47 in998.0 mb 0.00 in0.0 mm 0.00 in0.0 mm 0.00 in0.0 mm
05:25 AM 56.7°F13.7°C 51.8°F11.0°C 80% 0.8 mph SSW1.3 kmh SSW 1.6 mph2.6 kmh 29.47 in998.0 mb 0.00 in0.0 mm 0.00 in0.0 mm 0.00 in0.0 mm
05:30 AM 56.7°F13.7°C 51.8°F11.0°C 80% 1.1 mph N1.8 kmh N 3.1 mph5.0 kmh 29.47 in998.0 mb 0.00 in0.0 mm 0.00 in0.0 mm 0.00 in0.0 mm
05:35 AM 56.7°F13.7°C 51.8°F11.0°C 80% 1.3 mph N2.1 kmh N 3.1 mph5.0 kmh 29.47 in998.0 mb 0.00 in0.0 mm 0.00 in0.0 mm 0.00 in0.0 mm
05:40 AM 56.8°F13.8°C 51.8°F11.0°C 80% 2.1 mph NNE3.4 kmh NNE 3.6 mph5.8 kmh 29.50 in999.0 mb 0.00 in0.0 mm 0.00 in0.0 mm 0.00 in0.0 mm
05:45 AM 57.2°F14.0°C 51.8°F11.0°C 80% 2.5 mph NNE4.0 kmh NNE 3.6 mph5.8 kmh 29.50 in999.0 mb 0.00 in0.0 mm 0.00 in0.0 mm 0.00 in0.0 mm
05:50 AM 57.4°F14.1°C 51.8°F11.0°C 80% 2.2 mph WSW3.5 kmh WSW 3.1 mph5.0 kmh 29.50 in999.0 mb 0.00 in0.0 mm 0.00 in0.0 mm 0.00 in0.0 mm
05:55 AM 57.4°F14.1°C 51.8°F11.0°C 79% 2.7 mph S4.3 kmh S 4.9 mph7.9 kmh 29.50 in999.0 mb 0.00 in0.0 mm 0.00 in0.0 mm 0.00 in0.0 mm
06:00 AM 57.6°F14.2°C 51.8°F11.0°C 79% 2.9 mph S4.7 kmh S 4.9 mph7.9 kmh 29.50 in999.0 mb 0.00 in0.0 mm 0.00 in0.0 mm 0.00 in0.0 mm
06:05 AM 57.7°F14.3°C 51.8°F11.0°C 79% 3.2 mph S5.1 kmh S 5.6 mph9.0 kmh 29.50 in999.0 mb 0.00 in0.0 mm 0.00 in0.0 mm 0.00 in0.0 mm
06:10 AM 58.1°F14.5°C 53.6°F12.0°C 80% 3.0 mph S4.8 kmh S 5.6 mph9.0 kmh 29.50 in999.0 mb 0.00 in0.0 mm 0.00 in0.0 mm 0.00 in0.0 mm
06:15 AM 58.3°F14.6°C 53.6°F12.0°C 80% 2.6 mph S4.2 kmh S 4.0 mph6.4 kmh 29.50 in999.0 mb 0.00 in0.0 mm 0.00 in0.0 mm 0.00 in0.0 mm
06:20 AM 58.3°F14.6°C 51.8°F11.0°C 79% 2.8 mph SSW4.5 kmh SSW 4.0 mph6.4 kmh 29.50 in999.0 mb 0.00 in0.0 mm 0.00 in0.0 mm 0.00 in0.0 mm
06:25 AM 58.5°F14.7°C 53.6°F12.0°C 80% 2.1 mph SSW3.4 kmh SSW 3.6 mph5.8 kmh 29.50 in999.0 mb 0.00 in0.0 mm 0.00 in0.0 mm 0.00 in0.0 mm
06:30 AM 58.8°F14.9°C 53.6°F12.0°C 79% 1.9 mph SW3.1 kmh SW 3.6 mph5.8 kmh 29.50 in999.0 mb 0.00 in0.0 mm 0.00 in0.0 mm 0.00 in0.0 mm
06:35 AM 59.0°F15.0°C 53.6°F12.0°C 80% 1.6 mph SW2.6 kmh SW 3.6 mph5.8 kmh 29.50 in999.0 mb 0.00 in0.0 mm 0.00 in0.0 mm 0.00 in0.0 mm
06:40 AM 59.0°F15.0°C 53.6°F12.0°C 80% 0.7 mph SW1.1 kmh SW 2.0 mph3.2 kmh 29.50 in999.0 mb 0.00 in0.0 mm 0.00 in0.0 mm 0.00 in0.0 mm
06:45 AM 59.2°F15.1°C 53.6°F12.0°C 80% 1.0 mph SW1.6 kmh SW 2.9 mph4.7 kmh 29.50 in999.0 mb 0.00 in0.0 mm 0.00 in0.0 mm 0.00 in0.0 mm
06:50 AM 59.4°F15.2°C 53.6°F12.0°C 80% 1.8 mph SW2.9 kmh SW 2.9 mph4.7 kmh 29.50 in999.0 mb 0.00 in0.0 mm 0.00 in0.0 mm 0.00 in0.0 mm
06:55 AM 59.7°F15.4°C 53.6°F12.0°C 79% 2.5 mph SW4.0 kmh SW 3.8 mph6.1 kmh 29.50 in999.0 mb 0.00 in0.0 mm 0.00 in0.0 mm 0.00 in0.0 mm
07:00 AM 59.9°F15.5°C 53.6°F12.0°C 79% 2.6 mph SW4.2 kmh SW 3.8 mph6.1 kmh 29.50 in999.0 mb 0.00 in0.0 mm 0.00 in0.0 mm 0.00 in0.0 mm
07:05 AM 59.9°F15.5°C 53.6°F12.0°C 79% 2.1 mph SW3.4 kmh SW 4.9 mph7.9 kmh 29.50 in999.0 mb 0.00 in0.0 mm 0.00 in0.0 mm 0.00 in0.0 mm
07:10 AM 60.1°F15.6°C 53.6°F12.0°C 79% 2.3 mph WSW3.7 kmh WSW 4.9 mph7.9 kmh 29.50 in999.0 mb 0.00 in0.0 mm 0.00 in0.0 mm 0.00 in0.0 mm
07:15 AM 60.1°F15.6°C 53.6°F12.0°C 79% 2.3 mph WSW3.7 kmh WSW 3.8 mph6.1 kmh 29.50 in999.0 mb 0.00 in0.0 mm 0.00 in0.0 mm 0.00 in0.0 mm
07:20 AM 60.1°F15.6°C 53.6°F12.0°C 79% 2.2 mph SSW3.5 kmh SSW 4.9 mph7.9 kmh 29.50 in999.0 mb 0.00 in0.0 mm 0.00 in0.0 mm 0.00 in0.0 mm
07:25 AM 60.3°F15.7°C 53.6°F12.0°C 79% 3.0 mph SW4.8 kmh SW 4.9 mph7.9 kmh 29.50 in999.0 mb 0.00 in0.0 mm 0.00 in0.0 mm 0.00 in0.0 mm
07:30 AM 60.6°F15.9°C 55.4°F13.0°C 79% 3.0 mph SW4.8 kmh SW 4.9 mph7.9 kmh 29.50 in999.0 mb 0.00 in0.0 mm 0.00 in0.0 mm 0.00 in0.0 mm
07:35 AM 60.8°F16.0°C 53.6°F12.0°C 78% 3.1 mph SSW5.0 kmh SSW 4.9 mph7.9 kmh 29.50 in999.0 mb 0.00 in0.0 mm 0.00 in0.0 mm 0.00 in0.0 mm
07:40 AM 61.2°F16.2°C 55.4°F13.0°C 78% 3.8 mph SW6.1 kmh SW 7.2 mph11.6 kmh 29.50 in999.0 mb 0.00 in0.0 mm 0.00 in0.0 mm 0.00 in0.0 mm
07:45 AM 61.7°F16.5°C 55.4°F13.0°C 78% 3.8 mph SW6.1 kmh SW 7.2 mph11.6 kmh 29.50 in999.0 mb 0.00 in0.0 mm 0.00 in0.0 mm 0.00 in0.0 mm
07:50 AM 62.2°F16.8°C 55.4°F13.0°C 77% 4.1 mph SW6.6 kmh SW 5.8 mph9.3 kmh 29.50 in999.0 mb 0.00 in0.0 mm 0.00 in0.0 mm 0.00 in0.0 mm
07:55 AM 61.9°F16.6°C 55.4°F13.0°C 77% 5.5 mph WSW8.9 kmh WSW 11.0 mph17.7 kmh 29.50 in999.0 mb 0.00 in0.0 mm 0.00 in0.0 mm 0.00 in0.0 mm
08:00 AM 61.9°F16.6°C 55.4°F13.0°C 77% 5.3 mph WSW8.5 kmh WSW 11.0 mph17.7 kmh 29.50 in999.0 mb 0.00 in0.0 mm 0.00 in0.0 mm 0.00 in0.0 mm
08:05 AM 62.1°F16.7°C 55.4°F13.0°C 77% 3.9 mph SW6.3 kmh SW 8.7 mph14.0 kmh 29.50 in999.0 mb 0.00 in0.0 mm 0.00 in0.0 mm 0.00 in0.0 mm
08:10 AM 62.1°F16.7°C 55.4°F13.0°C 77% 3.6 mph SW5.8 kmh SW 6.9 mph11.1 kmh 29.50 in999.0 mb 0.00 in0.0 mm 0.00 in0.0 mm 0.00 in0.0 mm
08:15 AM 62.1°F16.7°C 55.4°F13.0°C 77% 4.3 mph SW6.9 kmh SW 7.2 mph11.6 kmh 29.50 in999.0 mb 0.00 in0.0 mm 0.00 in0.0 mm 0.00 in0.0 mm
08:20 AM 62.1°F16.7°C 55.4°F13.0°C 77% 4.7 mph WSW7.6 kmh WSW 7.8 mph12.6 kmh 29.50 in999.0 mb 0.00 in0.0 mm 0.00 in0.0 mm 0.00 in0.0 mm
08:25 AM 61.9°F16.6°C 55.4°F13.0°C 76% 4.6 mph WSW7.4 kmh WSW 7.8 mph12.6 kmh 29.50 in999.0 mb 0.00 in0.0 mm 0.00 in0.0 mm 0.00 in0.0 mm
08:30 AM 61.9°F16.6°C 55.4°F13.0°C 76% 3.3 mph SW5.3 kmh SW 5.4 mph8.7 kmh 29.50 in999.0 mb 0.00 in0.0 mm 0.00 in0.0 mm 0.00 in0.0 mm
08:35 AM 62.6°F17.0°C 55.4°F13.0°C 75% 3.2 mph SW5.1 kmh SW 7.2 mph11.6 kmh 29.50 in999.0 mb 0.00 in0.0 mm 0.00 in0.0 mm 0.00 in0.0 mm
08:40 AM 64.0°F17.8°C 55.4°F13.0°C 75% 4.3 mph SW6.9 kmh SW 7.2 mph11.6 kmh 29.50 in999.0 mb 0.00 in0.0 mm 0.00 in0.0 mm 0.00 in0.0 mm
08:45 AM 63.9°F17.7°C 55.4°F13.0°C 74% 4.9 mph SW7.9 kmh SW 8.5 mph13.7 kmh 29.50 in999.0 mb 0.00 in0.0 mm 0.00 in0.0 mm 0.00 in0.0 mm
08:50 AM 64.2°F17.9°C 55.4°F13.0°C 73% 5.2 mph SW8.4 kmh SW 8.5 mph13.7 kmh 29.50 in999.0 mb 0.00 in0.0 mm 0.00 in0.0 mm 0.00 in0.0 mm
08:55 AM 64.8°F18.2°C 55.4°F13.0°C 72% 5.2 mph SW8.4 kmh SW 11.0 mph17.7 kmh 29.50 in999.0 mb 0.00 in0.0 mm 0.00 in0.0 mm 0.00 in0.0 mm
09:00 AM 65.5°F18.6°C 57.2°F14.0°C 72% 6.2 mph WSW10.0 kmh WSW 11.0 mph17.7 kmh 29.50 in999.0 mb 0.00 in0.0 mm 0.00 in0.0 mm 0.00 in0.0 mm
09:05 AM 66.2°F19.0°C 55.4°F13.0°C 70% 6.8 mph SW10.9 kmh SW 11.0 mph17.7 kmh 29.50 in999.0 mb 0.00 in0.0 mm 0.00 in0.0 mm 0.00 in0.0 mm
09:10 AM 66.0°F18.9°C 57.2°F14.0°C 71% 5.6 mph SW9.0 kmh SW 10.7 mph17.2 kmh 29.50 in999.0 mb 0.00 in0.0 mm 0.00 in0.0 mm 0.00 in0.0 mm
09:15 AM 65.7°F18.7°C 55.4°F13.0°C 71% 4.9 mph SW7.9 kmh SW 10.7 mph17.2 kmh 29.50 in999.0 mb 0.00 in0.0 mm 0.00 in0.0 mm 0.00 in0.0 mm
09:20 AM 67.5°F19.7°C 57.2°F14.0°C 69% 5.7 mph SW9.2 kmh SW 8.7 mph14.0 kmh 29.50 in999.0 mb 0.00 in0.0 mm 0.00 in0.0 mm 0.00 in0.0 mm
09:25 AM 67.8°F19.9°C 57.2°F14.0°C 68% 5.8 mph W9.3 kmh W 8.7 mph14.0 kmh 29.50 in999.0 mb 0.00 in0.0 mm 0.00 in0.0 mm 0.00 in0.0 mm
09:30 AM 68.2°F20.1°C 57.2°F14.0°C 67% 5.5 mph WSW8.9 kmh WSW 12.1 mph19.5 kmh 29.50 in999.0 mb 0.00 in0.0 mm 0.00 in0.0 mm 0.00 in0.0 mm
09:35 AM 66.7°F19.3°C 55.4°F13.0°C 67% 6.6 mph WSW10.6 kmh WSW 12.1 mph19.5 kmh 29.50 in999.0 mb 0.00 in0.0 mm 0.00 in0.0 mm 0.00 in0.0 mm
09:40 AM 65.8°F18.8°C 55.4°F13.0°C 69% 6.8 mph WSW10.9 kmh WSW 12.1 mph19.5 kmh 29.50 in999.0 mb 0.00 in0.0 mm 0.00 in0.0 mm 0.00 in0.0 mm
09:45 AM 65.1°F18.4°C 55.4°F13.0°C 69% 6.8 mph WSW10.9 kmh WSW 10.1 mph16.3 kmh 29.50 in999.0 mb 0.00 in0.0 mm 0.00 in0.0 mm 0.00 in0.0 mm
09:50 AM 65.5°F18.6°C 55.4°F13.0°C 70% 6.1 mph WSW9.8 kmh WSW 10.1 mph16.3 kmh 29.50 in999.0 mb 0.00 in0.0 mm 0.00 in0.0 mm 0.00 in0.0 mm
09:55 AM 67.5°F19.7°C 57.2°F14.0°C 68% 4.5 mph WSW7.2 kmh WSW 7.2 mph11.6 kmh 29.50 in999.0 mb 0.00 in0.0 mm 0.00 in0.0 mm 0.00 in0.0 mm
10:00 AM 68.4°F20.2°C 57.2°F14.0°C 66% 4.3 mph WSW6.9 kmh WSW 7.2 mph11.6 kmh 29.50 in999.0 mb 0.00 in0.0 mm 0.00 in0.0 mm 0.00 in0.0 mm
10:05 AM 68.9°F20.5°C 57.2°F14.0°C 66% 3.7 mph SW6.0 kmh SW 6.3 mph10.1 kmh 29.50 in999.0 mb 0.00 in0.0 mm 0.00 in0.0 mm 0.00 in0.0 mm
10:10 AM 69.6°F20.9°C 57.2°F14.0°C 64% 4.1 mph WSW6.6 kmh WSW 6.5 mph10.5 kmh 29.50 in999.0 mb 0.00 in0.0 mm 0.00 in0.0 mm 0.00 in0.0 mm
10:15 AM 68.7°F20.4°C 57.2°F14.0°C 65% 4.8 mph WSW7.7 kmh WSW 6.5 mph10.5 kmh 29.50 in999.0 mb 0.00 in0.0 mm 0.00 in0.0 mm 0.00 in0.0 mm
10:20 AM 67.6°F19.8°C 55.4°F13.0°C 66% 5.6 mph WSW9.0 kmh WSW 8.5 mph13.7 kmh 29.50 in999.0 mb 0.00 in0.0 mm 0.00 in0.0 mm 0.00 in0.0 mm
10:25 AM 68.0°F20.0°C 55.4°F13.0°C 64% 7.5 mph WSW12.1 kmh WSW 9.6 mph15.4 kmh 29.50 in999.0 mb 0.00 in0.0 mm 0.00 in0.0 mm 0.00 in0.0 mm
10:30 AM 68.4°F20.2°C 55.4°F13.0°C 63% 6.8 mph WSW10.9 kmh WSW 9.6 mph15.4 kmh 29.50 in999.0 mb 0.00 in0.0 mm 0.00 in0.0 mm 0.00 in0.0 mm
10:35 AM 70.0°F21.1°C 55.4°F13.0°C 62% 5.5 mph W8.9 kmh W 7.8 mph12.6 kmh 29.50 in999.0 mb 0.00 in0.0 mm 0.00 in0.0 mm 0.00 in0.0 mm
10:40 AM 68.4°F20.2°C 55.4°F13.0°C 63% 4.7 mph WSW7.6 kmh WSW 7.4 mph11.9 kmh 29.50 in999.0 mb 0.00 in0.0 mm 0.00 in0.0 mm 0.00 in0.0 mm
10:45 AM 67.5°F19.7°C 55.4°F13.0°C 64% 5.1 mph WSW8.2 kmh WSW 11.0 mph17.7 kmh 29.50 in999.0 mb 0.00 in0.0 mm 0.00 in0.0 mm 0.00 in0.0 mm
10:50 AM 68.4°F20.2°C 55.4°F13.0°C 63% 5.3 mph WSW8.5 kmh WSW 11.0 mph17.7 kmh 29.50 in999.0 mb 0.00 in0.0 mm 0.00 in0.0 mm 0.00 in0.0 mm
10:55 AM 67.5°F19.7°C 55.4°F13.0°C 64% 4.3 mph WSW6.9 kmh WSW 6.0 mph9.7 kmh 29.50 in999.0 mb 0.00 in0.0 mm 0.00 in0.0 mm 0.00 in0.0 mm
11:00 AM 67.1°F19.5°C 55.4°F13.0°C 64% 4.6 mph WSW7.4 kmh WSW 7.6 mph12.2 kmh 29.50 in999.0 mb 0.00 in0.0 mm 0.00 in0.0 mm 0.00 in0.0 mm
11:05 AM 67.1°F19.5°C 55.4°F13.0°C 64% 5.7 mph W9.2 kmh W 9.8 mph15.8 kmh 29.50 in999.0 mb 0.00 in0.0 mm 0.00 in0.0 mm 0.00 in0.0 mm
11:10 AM 70.2°F21.2°C 57.2°F14.0°C 62% 5.3 mph W8.5 kmh W 9.8 mph15.8 kmh 29.50 in999.0 mb 0.00 in0.0 mm 0.00 in0.0 mm 0.00 in0.0 mm
11:15 AM 70.5°F21.4°C 55.4°F13.0°C 60% 5.2 mph WSW8.4 kmh WSW 10.3 mph16.6 kmh 29.50 in999.0 mb 0.00 in0.0 mm 0.00 in0.0 mm 0.00 in0.0 mm
11:20 AM 69.1°F20.6°C 55.4°F13.0°C 60% 6.6 mph W10.6 kmh W 10.7 mph17.2 kmh 29.50 in999.0 mb 0.00 in0.0 mm 0.00 in0.0 mm 0.00 in0.0 mm
11:25 AM 68.7°F20.4°C 55.4°F13.0°C 60% 7.2 mph WSW11.6 kmh WSW 13.0 mph20.9 kmh 29.50 in999.0 mb 0.00 in0.0 mm 0.00 in0.0 mm 0.00 in0.0 mm
11:30 AM 68.4°F20.2°C 55.4°F13.0°C 60% 6.1 mph WSW9.8 kmh WSW 13.0 mph20.9 kmh 29.50 in999.0 mb 0.00 in0.0 mm 0.00 in0.0 mm 0.00 in0.0 mm
11:35 AM 68.4°F20.2°C 53.6°F12.0°C 59% 6.4 mph WSW10.3 kmh WSW 11.9 mph19.2 kmh 29.50 in999.0 mb 0.00 in0.0 mm 0.00 in0.0 mm 0.00 in0.0 mm
11:40 AM 68.4°F20.2°C 53.6°F12.0°C 58% 8.6 mph SW13.8 kmh SW 11.9 mph19.2 kmh 29.50 in999.0 mb 0.00 in0.0 mm 0.00 in0.0 mm 0.00 in0.0 mm
11:45 AM 68.7°F20.4°C 53.6°F12.0°C 58% 8.9 mph WSW14.3 kmh WSW 14.5 mph23.3 kmh 29.50 in999.0 mb 0.00 in0.0 mm 0.00 in0.0 mm 0.00 in0.0 mm
11:50 AM 68.2°F20.1°C 53.6°F12.0°C 58% 7.8 mph WSW12.6 kmh WSW 14.5 mph23.3 kmh 29.50 in999.0 mb 0.00 in0.0 mm 0.00 in0.0 mm 0.00 in0.0 mm
11:55 AM 71.6°F22.0°C 55.4°F13.0°C 55% 6.2 mph W10.0 kmh W 9.6 mph15.4 kmh 29.53 in1000.0 mb 0.00 in0.0 mm 0.00 in0.0 mm 0.00 in0.0 mm
12:00 PM 73.4°F23.0°C 55.4°F13.0°C 54% 6.7 mph W10.8 kmh W 10.7 mph17.2 kmh 29.53 in1000.0 mb 0.00 in0.0 mm 0.00 in0.0 mm 0.00 in0.0 mm
12:05 PM 72.0°F22.2°C 55.4°F13.0°C 55% 6.2 mph WSW10.0 kmh WSW 10.7 mph17.2 kmh 29.53 in1000.0 mb 0.00 in0.0 mm 0.00 in0.0 mm 0.00 in0.0 mm
12:10 PM 74.5°F23.6°C 57.2°F14.0°C 53% 5.9 mph WSW9.5 kmh WSW 10.5 mph16.9 kmh 29.50 in999.0 mb 0.00 in0.0 mm 0.00 in0.0 mm 0.00 in0.0 mm
12:15 PM 74.8°F23.8°C 57.2°F14.0°C 53% 7.6 mph WSW12.2 kmh WSW 12.3 mph19.8 kmh 29.50 in999.0 mb 0.00 in0.0 mm 0.00 in0.0 mm 0.00 in0.0 mm
12:20 PM 73.6°F23.1°C 55.4°F13.0°C 52% 7.5 mph WSW12.1 kmh WSW 12.3 mph19.8 kmh 29.50 in999.0 mb 0.00 in0.0 mm 0.00 in0.0 mm 0.00 in0.0 mm
12:25 PM 72.3°F22.4°C 55.4°F13.0°C 53% 7.1 mph WSW11.4 kmh WSW 10.3 mph16.6 kmh 29.53 in1000.0 mb 0.00 in0.0 mm 0.00 in0.0 mm 0.00 in0.0 mm
12:30 PM 74.8°F23.8°C 55.4°F13.0°C 51% 7.7 mph WSW12.4 kmh WSW 13.0 mph20.9 kmh 29.53 in1000.0 mb 0.00 in0.0 mm 0.00 in0.0 mm 0.00 in0.0 mm
12:35 PM 72.5°F22.5°C 55.4°F13.0°C 52% 9.1 mph WSW14.6 kmh WSW 13.0 mph20.9 kmh 29.53 in1000.0 mb 0.00 in0.0 mm 0.00 in0.0 mm 0.00 in0.0 mm
12:40 PM 71.6°F22.0°C 53.6°F12.0°C 52% 8.9 mph WSW14.3 kmh WSW 14.8 mph23.8 kmh 29.53 in1000.0 mb 0.00 in0.0 mm 0.00 in0.0 mm 0.00 in0.0 mm
12:45 PM 72.5°F22.5°C 55.4°F13.0°C 52% 7.5 mph WSW12.1 kmh WSW 14.8 mph23.8 kmh 29.53 in1000.0 mb 0.00 in0.0 mm 0.00 in0.0 mm 0.00 in0.0 mm
12:50 PM 73.8°F23.2°C 55.4°F13.0°C 51% 6.8 mph W10.9 kmh W 15.4 mph24.8 kmh 29.53 in1000.0 mb 0.00 in0.0 mm 0.00 in0.0 mm 0.00 in0.0 mm
12:55 PM 75.7°F24.3°C 55.4°F13.0°C 50% 7.2 mph W11.6 kmh W 15.4 mph24.8 kmh 29.53 in1000.0 mb 0.00 in0.0 mm 0.00 in0.0 mm 0.00 in0.0 mm
01:00 PM 73.6°F23.1°C 53.6°F12.0°C 50% 8.8 mph WSW14.2 kmh WSW 15.4 mph24.8 kmh 29.53 in1000.0 mb 0.00 in0.0 mm 0.00 in0.0 mm 0.00 in0.0 mm
01:05 PM 74.7°F23.7°C 55.4°F13.0°C 50% 8.7 mph WSW14.0 kmh WSW 12.8 mph20.6 kmh 29.53 in1000.0 mb 0.00 in0.0 mm 0.00 in0.0 mm 0.00 in0.0 mm
01:10 PM 74.7°F23.7°C 55.4°F13.0°C 49% 7.8 mph W12.6 kmh W 12.1 mph19.5 kmh 29.53 in1000.0 mb 0.00 in0.0 mm 0.00 in0.0 mm 0.00 in0.0 mm
01:15 PM 75.0°F23.9°C 55.4°F13.0°C 49% 8.2 mph W13.2 kmh W 15.4 mph24.8 kmh 29.53 in1000.0 mb 0.00 in0.0 mm 0.00 in0.0 mm 0.00 in0.0 mm
01:20 PM 74.8°F23.8°C 55.4°F13.0°C 49% 6.6 mph WSW10.6 kmh WSW 15.4 mph24.8 kmh 29.53 in1000.0 mb 0.00 in0.0 mm 0.00 in0.0 mm 0.00 in0.0 mm
01:25 PM 76.5°F24.7°C 55.4°F13.0°C 49% 6.6 mph WSW10.6 kmh WSW 9.6 mph15.4 kmh 29.53 in1000.0 mb 0.00 in0.0 mm 0.00 in0.0 mm 0.00 in0.0 mm
01:30 PM 74.7°F23.7°C 53.6°F12.0°C 48% 8.2 mph WSW13.2 kmh WSW 16.8 mph27.0 kmh 29.53 in1000.0 mb 0.00 in0.0 mm 0.00 in0.0 mm 0.00 in0.0 mm
01:35 PM 76.3°F24.6°C 55.4°F13.0°C 48% 7.1 mph WSW11.4 kmh WSW 16.8 mph27.0 kmh 29.53 in1000.0 mb 0.00 in0.0 mm 0.00 in0.0 mm 0.00 in0.0 mm
01:40 PM 77.5°F25.3°C 55.4°F13.0°C 47% 6.3 mph W10.1 kmh W 10.1 mph16.3 kmh 29.53 in1000.0 mb 0.00 in0.0 mm 0.00 in0.0 mm 0.00 in0.0 mm
01:45 PM 77.7°F25.4°C 55.4°F13.0°C 46% 6.7 mph W10.8 kmh W 11.4 mph18.3 kmh 29.53 in1000.0 mb 0.00 in0.0 mm 0.00 in0.0 mm 0.00 in0.0 mm
01:50 PM 78.1°F25.6°C 55.4°F13.0°C 46% 7.1 mph SW11.4 kmh SW 11.4 mph18.3 kmh 29.53 in1000.0 mb 0.00 in0.0 mm 0.00 in0.0 mm 0.00 in0.0 mm
01:55 PM 78.1°F25.6°C 55.4°F13.0°C 46% 8.6 mph SW13.8 kmh SW 17.0 mph27.4 kmh 29.53 in1000.0 mb 0.00 in0.0 mm 0.00 in0.0 mm 0.00 in0.0 mm
02:00 PM 77.9°F25.5°C 55.4°F13.0°C 46% 8.5 mph SW13.7 kmh SW 17.0 mph27.4 kmh 29.53 in1000.0 mb 0.00 in0.0 mm 0.00 in0.0 mm 0.00 in0.0 mm
02:05 PM 75.2°F24.0°C 53.6°F12.0°C 47% 8.5 mph SW13.7 kmh SW 12.3 mph19.8 kmh 29.53 in1000.0 mb 0.00 in0.0 mm 0.00 in0.0 mm 0.00 in0.0 mm
02:10 PM 77.4°F25.2°C 55.4°F13.0°C 46% 8.2 mph SW13.2 kmh SW 12.3 mph19.8 kmh 29.53 in1000.0 mb 0.00 in0.0 mm 0.00 in0.0 mm 0.00 in0.0 mm
02:15 PM 77.0°F25.0°C 55.4°F13.0°C 46% 6.7 mph SW10.8 kmh SW 14.8 mph23.8 kmh 29.53 in1000.0 mb 0.00 in0.0 mm 0.00 in0.0 mm 0.00 in0.0 mm
02:20 PM 76.8°F24.9°C 55.4°F13.0°C 47% 7.1 mph WSW11.4 kmh WSW 16.3 mph26.2 kmh 29.53 in1000.0 mb 0.00 in0.0 mm 0.00 in0.0 mm 0.00 in0.0 mm
02:25 PM 75.7°F24.3°C 55.4°F13.0°C 47% 8.3 mph WSW13.4 kmh WSW 16.3 mph26.2 kmh 29.53 in1000.0 mb 0.00 in0.0 mm 0.00 in0.0 mm 0.00 in0.0 mm
02:30 PM 74.5°F23.6°C 53.6°F12.0°C 47% 8.6 mph WSW13.8 kmh WSW 16.3 mph26.2 kmh 29.53 in1000.0 mb 0.00 in0.0 mm 0.00 in0.0 mm 0.00 in0.0 mm
02:35 PM 76.3°F24.6°C 55.4°F13.0°C 47% 7.7 mph WSW12.4 kmh WSW 10.7 mph17.2 kmh 29.53 in1000.0 mb 0.00 in0.0 mm 0.00 in0.0 mm 0.00 in0.0 mm
02:40 PM 76.3°F24.6°C 55.4°F13.0°C 46% 7.4 mph WSW11.9 kmh WSW 11.2 mph18.0 kmh 29.53 in1000.0 mb 0.00 in0.0 mm 0.00 in0.0 mm 0.00 in0.0 mm
02:45 PM 77.2°F25.1°C 55.4°F13.0°C 45% 6.5 mph W10.5 kmh W 11.2 mph18.0 kmh 29.53 in1000.0 mb 0.00 in0.0 mm 0.00 in0.0 mm 0.00 in0.0 mm
02:50 PM 77.4°F25.2°C 55.4°F13.0°C 45% 7.1 mph WNW11.4 kmh WNW 11.0 mph17.7 kmh 29.53 in1000.0 mb 0.00 in0.0 mm 0.00 in0.0 mm 0.00 in0.0 mm
02:55 PM 77.2°F25.1°C 53.6°F12.0°C 44% 7.6 mph W12.2 kmh W 11.0 mph17.7 kmh 29.53 in1000.0 mb 0.00 in0.0 mm 0.00 in0.0 mm 0.00 in0.0 mm
03:00 PM 77.2°F25.1°C 53.6°F12.0°C 44% 6.6 mph WSW10.6 kmh WSW 12.1 mph19.5 kmh 29.53 in1000.0 mb 0.00 in0.0 mm 0.00 in0.0 mm 0.00 in0.0 mm
03:05 PM 76.3°F24.6°C 55.4°F13.0°C 46% 5.6 mph WSW9.0 kmh WSW 12.1 mph19.5 kmh 29.53 in1000.0 mb 0.00 in0.0 mm 0.00 in0.0 mm 0.00 in0.0 mm
03:10 PM 75.6°F24.2°C 53.6°F12.0°C 45% 6.9 mph WSW11.1 kmh WSW 13.0 mph20.9 kmh 29.53 in1000.0 mb 0.00 in0.0 mm 0.00 in0.0 mm 0.00 in0.0 mm
03:15 PM 76.1°F24.5°C 53.6°F12.0°C 45% 7.5 mph WSW12.1 kmh WSW 13.0 mph20.9 kmh 29.53 in1000.0 mb 0.00 in0.0 mm 0.00 in0.0 mm 0.00 in0.0 mm
03:20 PM 76.5°F24.7°C 53.6°F12.0°C 45% 7.7 mph WSW12.4 kmh WSW 13.0 mph20.9 kmh 29.53 in1000.0 mb 0.00 in0.0 mm 0.00 in0.0 mm 0.00 in0.0 mm
03:25 PM 75.2°F24.0°C 53.6°F12.0°C 45% 8.4 mph WSW13.5 kmh WSW 11.0 mph17.7 kmh 29.53 in1000.0 mb 0.00 in0.0 mm 0.00 in0.0 mm 0.00 in0.0 mm
03:30 PM 75.9°F24.4°C 53.6°F12.0°C 44% 9.1 mph WSW14.6 kmh WSW 13.0 mph20.9 kmh 29.53 in1000.0 mb 0.00 in0.0 mm 0.00 in0.0 mm 0.00 in0.0 mm
03:35 PM 75.4°F24.1°C 51.8°F11.0°C 44% 10.3 mph WSW16.6 kmh WSW 13.0 mph20.9 kmh 29.53 in1000.0 mb 0.00 in0.0 mm 0.00 in0.0 mm 0.00 in0.0 mm
03:40 PM 74.1°F23.4°C 51.8°F11.0°C 45% 9.8 mph W15.8 kmh W 13.4 mph21.6 kmh 29.53 in1000.0 mb 0.00 in0.0 mm 0.00 in0.0 mm 0.00 in0.0 mm
03:45 PM 74.3°F23.5°C 51.8°F11.0°C 45% 9.1 mph W14.6 kmh W 13.4 mph21.6 kmh 29.53 in1000.0 mb 0.00 in0.0 mm 0.00 in0.0 mm 0.00 in0.0 mm
03:50 PM 74.5°F23.6°C 51.8°F11.0°C 44% 9.8 mph WSW15.8 kmh WSW 13.9 mph22.4 kmh 29.53 in1000.0 mb 0.00 in0.0 mm 0.00 in0.0 mm 0.00 in0.0 mm
03:55 PM 74.3°F23.5°C 51.8°F11.0°C 44% 9.9 mph WSW15.9 kmh WSW 13.9 mph22.4 kmh 29.53 in1000.0 mb 0.00 in0.0 mm 0.00 in0.0 mm 0.00 in0.0 mm
04:00 PM 73.8°F23.2°C 51.8°F11.0°C 44% 10.2 mph WSW16.4 kmh WSW 13.9 mph22.4 kmh 29.53 in1000.0 mb 0.00 in0.0 mm 0.00 in0.0 mm 0.00 in0.0 mm
04:05 PM 73.8°F23.2°C 51.8°F11.0°C 44% 9.5 mph WSW15.3 kmh WSW 12.8 mph20.6 kmh 29.53 in1000.0 mb 0.00 in0.0 mm 0.00 in0.0 mm 0.00 in0.0 mm
04:10 PM 73.2°F22.9°C 51.8°F11.0°C 45% 7.8 mph WSW12.6 kmh WSW 12.8 mph20.6 kmh 29.53 in1000.0 mb 0.00 in0.0 mm 0.00 in0.0 mm 0.00 in0.0 mm
04:15 PM 73.0°F22.8°C 50.0°F10.0°C 45% 6.6 mph WSW10.6 kmh WSW 10.5 mph16.9 kmh 29.53 in1000.0 mb 0.00 in0.0 mm 0.00 in0.0 mm 0.00 in0.0 mm
04:20 PM 72.9°F22.7°C 50.0°F10.0°C 45% 7.7 mph WSW12.4 kmh WSW 10.5 mph16.9 kmh 29.53 in1000.0 mb 0.00 in0.0 mm 0.00 in0.0 mm 0.00 in0.0 mm
04:25 PM 72.3°F22.4°C 50.0°F10.0°C 45% 10.2 mph WSW16.4 kmh WSW 14.8 mph23.8 kmh 29.56 in1001.0 mb 0.00 in0.0 mm 0.00 in0.0 mm 0.00 in0.0 mm
04:30 PM 72.0°F22.2°C 50.0°F10.0°C 45% 9.5 mph WSW15.3 kmh WSW 14.8 mph23.8 kmh 29.56 in1001.0 mb 0.00 in0.0 mm 0.00 in0.0 mm 0.00 in0.0 mm
04:35 PM 71.6°F22.0°C 50.0°F10.0°C 45% 8.2 mph WSW13.2 kmh WSW 12.5 mph20.1 kmh 29.56 in1001.0 mb 0.00 in0.0 mm 0.00 in0.0 mm 0.00 in0.0 mm
04:40 PM 71.1°F21.7°C 48.2°F9.0°C 45% 8.2 mph W13.2 kmh W 13.0 mph20.9 kmh 29.56 in1001.0 mb 0.00 in0.0 mm 0.00 in0.0 mm 0.00 in0.0 mm
04:45 PM 71.1°F21.7°C 48.2°F9.0°C 45% 8.4 mph W13.5 kmh W 13.0 mph20.9 kmh 29.56 in1001.0 mb 0.00 in0.0 mm 0.00 in0.0 mm 0.00 in0.0 mm
04:50 PM 70.7°F21.5°C 48.2°F9.0°C 45% 9.9 mph WSW15.9 kmh WSW 17.2 mph27.7 kmh 29.56 in1001.0 mb 0.00 in0.0 mm 0.00 in0.0 mm 0.00 in0.0 mm
04:55 PM 70.7°F21.5°C 48.2°F9.0°C 45% 10.0 mph WSW16.1 kmh WSW 17.2 mph27.7 kmh 29.56 in1001.0 mb 0.00 in0.0 mm 0.00 in0.0 mm 0.00 in0.0 mm
05:00 PM 70.5°F21.4°C 48.2°F9.0°C 45% 8.4 mph WSW13.5 kmh WSW 14.8 mph23.8 kmh 29.56 in1001.0 mb 0.00 in0.0 mm 0.00 in0.0 mm 0.00 in0.0 mm
05:05 PM 70.2°F21.2°C 48.2°F9.0°C 46% 8.6 mph W13.8 kmh W 14.5 mph23.3 kmh 29.56 in1001.0 mb 0.00 in0.0 mm 0.00 in0.0 mm 0.00 in0.0 mm
05:10 PM 70.0°F21.1°C 48.2°F9.0°C 46% 7.0 mph WSW11.3 kmh WSW 12.3 mph19.8 kmh 29.56 in1001.0 mb 0.00 in0.0 mm 0.00 in0.0 mm 0.00 in0.0 mm
05:15 PM 69.6°F20.9°C 48.2°F9.0°C 47% 7.7 mph WSW12.4 kmh WSW 12.3 mph19.8 kmh 29.56 in1001.0 mb 0.00 in0.0 mm 0.00 in0.0 mm 0.00 in0.0 mm
05:20 PM 69.4°F20.8°C 48.2°F9.0°C 47% 8.5 mph WSW13.7 kmh WSW 12.3 mph19.8 kmh 29.56 in1001.0 mb 0.00 in0.0 mm 0.00 in0.0 mm 0.00 in0.0 mm
05:25 PM 69.4°F20.8°C 48.2°F9.0°C 47% 7.6 mph W12.2 kmh W 12.5 mph20.1 kmh 29.56 in1001.0 mb 0.00 in0.0 mm 0.00 in0.0 mm 0.00 in0.0 mm
05:30 PM 69.3°F20.7°C 48.2°F9.0°C 47% 8.2 mph WSW13.2 kmh WSW 12.5 mph20.1 kmh 29.56 in1001.0 mb 0.00 in0.0 mm 0.00 in0.0 mm 0.00 in0.0 mm
05:35 PM 68.9°F20.5°C 48.2°F9.0°C 47% 8.1 mph WSW13.0 kmh WSW 15.4 mph24.8 kmh 29.56 in1001.0 mb 0.00 in0.0 mm 0.00 in0.0 mm 0.00 in0.0 mm
05:40 PM 68.7°F20.4°C 48.2°F9.0°C 47% 6.4 mph WSW10.3 kmh WSW 15.4 mph24.8 kmh 29.56 in1001.0 mb 0.00 in0.0 mm 0.00 in0.0 mm 0.00 in0.0 mm
05:45 PM 68.5°F20.3°C 48.2°F9.0°C 47% 7.3 mph WSW11.7 kmh WSW 15.4 mph24.8 kmh 29.56 in1001.0 mb 0.00 in0.0 mm 0.00 in0.0 mm 0.00 in0.0 mm
05:50 PM 68.4°F20.2°C 48.2°F9.0°C 47% 9.0 mph WSW14.5 kmh WSW 16.1 mph25.9 kmh 29.56 in1001.0 mb 0.00 in0.0 mm 0.00 in0.0 mm 0.00 in0.0 mm
05:55 PM 68.2°F20.1°C 48.2°F9.0°C 48% 8.4 mph W13.5 kmh W 16.1 mph25.9 kmh 29.56 in1001.0 mb 0.00 in0.0 mm 0.00 in0.0 mm 0.00 in0.0 mm
06:00 PM 68.0°F20.0°C 48.2°F9.0°C 48% 8.4 mph WSW13.5 kmh WSW 11.4 mph18.3 kmh 29.56 in1001.0 mb 0.00 in0.0 mm 0.00 in0.0 mm 0.00 in0.0 mm
06:05 PM 67.8°F19.9°C 48.2°F9.0°C 48% 9.3 mph WSW15.0 kmh WSW 11.4 mph18.3 kmh 29.56 in1001.0 mb 0.00 in0.0 mm 0.00 in0.0 mm 0.00 in0.0 mm
06:10 PM 67.6°F19.8°C 48.2°F9.0°C 48% 8.1 mph WSW13.0 kmh WSW 11.4 mph18.3 kmh 29.59 in1002.0 mb 0.00 in0.0 mm 0.00 in0.0 mm 0.00 in0.0 mm
06:15 PM 67.5°F19.7°C 48.2°F9.0°C 49% 8.2 mph WSW13.2 kmh WSW 13.0 mph20.9 kmh 29.59 in1002.0 mb 0.00 in0.0 mm 0.00 in0.0 mm 0.00 in0.0 mm
06:20 PM 67.3°F19.6°C 48.2°F9.0°C 49% 8.9 mph WSW14.3 kmh WSW 13.0 mph20.9 kmh 29.59 in1002.0 mb 0.00 in0.0 mm 0.00 in0.0 mm 0.00 in0.0 mm
06:25 PM 67.1°F19.5°C 48.2°F9.0°C 49% 7.3 mph WSW11.7 kmh WSW 13.0 mph20.9 kmh 29.59 in1002.0 mb 0.00 in0.0 mm 0.00 in0.0 mm 0.00 in0.0 mm
06:30 PM 66.7°F19.3°C 48.2°F9.0°C 49% 6.9 mph WSW11.1 kmh WSW 9.4 mph15.1 kmh 29.59 in1002.0 mb 0.00 in0.0 mm 0.00 in0.0 mm 0.00 in0.0 mm
06:35 PM 66.6°F19.2°C 48.2°F9.0°C 49% 8.4 mph WSW13.5 kmh WSW 11.9 mph19.2 kmh 29.59 in1002.0 mb 0.00 in0.0 mm 0.00 in0.0 mm 0.00 in0.0 mm
06:40 PM 66.2°F19.0°C 46.4°F8.0°C 49% 7.5 mph WSW12.1 kmh WSW 11.9 mph19.2 kmh 29.59 in1002.0 mb 0.00 in0.0 mm 0.00 in0.0 mm 0.00 in0.0 mm
06:45 PM 66.0°F18.9°C 48.2°F9.0°C 51% 6.8 mph W10.9 kmh W 8.5 mph13.7 kmh 29.59 in1002.0 mb 0.00 in0.0 mm 0.00 in0.0 mm 0.00 in0.0 mm
06:50 PM 65.7°F18.7°C 48.2°F9.0°C 51% 6.9 mph W11.1 kmh W 10.3 mph16.6 kmh 29.59 in1002.0 mb 0.00 in0.0 mm 0.00 in0.0 mm 0.00 in0.0 mm
06:55 PM 65.7°F18.7°C 48.2°F9.0°C 51% 6.3 mph W10.1 kmh W 10.3 mph16.6 kmh 29.59 in1002.0 mb 0.00 in0.0 mm 0.00 in0.0 mm 0.00 in0.0 mm
07:00 PM 65.3°F18.5°C 48.2°F9.0°C 51% 6.2 mph W10.0 kmh W 8.1 mph13.0 kmh 29.59 in1002.0 mb 0.00 in0.0 mm 0.00 in0.0 mm 0.00 in0.0 mm
07:05 PM 65.1°F18.4°C 48.2°F9.0°C 52% 6.4 mph WSW10.3 kmh WSW 9.6 mph15.4 kmh 29.59 in1002.0 mb 0.00 in0.0 mm 0.00 in0.0 mm 0.00 in0.0 mm
07:10 PM 64.9°F18.3°C 48.2°F9.0°C 52% 6.3 mph W10.1 kmh W 11.0 mph17.7 kmh 29.59 in1002.0 mb 0.00 in0.0 mm 0.00 in0.0 mm 0.00 in0.0 mm
07:15 PM 64.8°F18.2°C 48.2°F9.0°C 52% 6.1 mph WSW9.8 kmh WSW 11.0 mph17.7 kmh 29.59 in1002.0 mb 0.00 in0.0 mm 0.00 in0.0 mm 0.00 in0.0 mm
07:20 PM 64.4°F18.0°C 48.2°F9.0°C 53% 5.2 mph W8.4 kmh W 7.8 mph12.6 kmh 29.59 in1002.0 mb 0.00 in0.0 mm 0.00 in0.0 mm 0.00 in0.0 mm
07:25 PM 64.2°F17.9°C 48.2°F9.0°C 53% 4.9 mph W7.9 kmh W 9.2 mph14.8 kmh 29.59 in1002.0 mb 0.00 in0.0 mm 0.00 in0.0 mm 0.00 in0.0 mm
07:30 PM 64.0°F17.8°C 46.4°F8.0°C 53% 4.7 mph WSW7.6 kmh WSW 9.2 mph14.8 kmh 29.59 in1002.0 mb 0.00 in0.0 mm 0.00 in0.0 mm 0.00 in0.0 mm
07:35 PM 63.9°F17.7°C 48.2°F9.0°C 54% 4.4 mph WSW7.1 kmh WSW 7.6 mph12.2 kmh 29.59 in1002.0 mb 0.00 in0.0 mm 0.00 in0.0 mm 0.00 in0.0 mm
07:40 PM 63.7°F17.6°C 48.2°F9.0°C 54% 5.4 mph WSW8.7 kmh WSW 7.4 mph11.9 kmh 29.59 in1002.0 mb 0.00 in0.0 mm 0.00 in0.0 mm 0.00 in0.0 mm
07:45 PM 63.5°F17.5°C 48.2°F9.0°C 54% 5.4 mph WSW8.7 kmh WSW 7.4 mph11.9 kmh 29.59 in1002.0 mb 0.00 in0.0 mm 0.00 in0.0 mm 0.00 in0.0 mm
07:50 PM 63.3°F17.4°C 46.4°F8.0°C 55% 5.6 mph WSW9.0 kmh WSW 8.5 mph13.7 kmh 29.59 in1002.0 mb 0.00 in0.0 mm 0.00 in0.0 mm 0.00 in0.0 mm
07:55 PM 63.1°F17.3°C 46.4°F8.0°C 55% 5.7 mph WSW9.2 kmh WSW 11.0 mph17.7 kmh 29.59 in1002.0 mb 0.00 in0.0 mm 0.00 in0.0 mm 0.00 in0.0 mm
08:00 PM 63.0°F17.2°C 46.4°F8.0°C 55% 5.0 mph WSW8.0 kmh WSW 11.0 mph17.7 kmh 29.59 in1002.0 mb 0.00 in0.0 mm 0.00 in0.0 mm 0.00 in0.0 mm
08:05 PM 62.8°F17.1°C 46.4°F8.0°C 56% 3.9 mph WSW6.3 kmh WSW 7.8 mph12.6 kmh 29.59 in1002.0 mb 0.00 in0.0 mm 0.00 in0.0 mm 0.00 in0.0 mm
08:10 PM 62.6°F17.0°C 46.4°F8.0°C 56% 4.1 mph W6.6 kmh W 6.0 mph9.7 kmh 29.62 in1003.0 mb 0.00 in0.0 mm 0.00 in0.0 mm 0.00 in0.0 mm
08:15 PM 62.6°F17.0°C 46.4°F8.0°C 56% 5.7 mph WSW9.2 kmh WSW 10.1 mph16.3 kmh 29.62 in1003.0 mb 0.00 in0.0 mm 0.00 in0.0 mm 0.00 in0.0 mm
08:20 PM 62.4°F16.9°C 48.2°F9.0°C 58% 6.0 mph SW9.7 kmh SW 10.1 mph16.3 kmh 29.62 in1003.0 mb 0.00 in0.0 mm 0.00 in0.0 mm 0.00 in0.0 mm
08:25 PM 62.2°F16.8°C 48.2°F9.0°C 59% 4.8 mph WSW7.7 kmh WSW 7.4 mph11.9 kmh 29.62 in1003.0 mb 0.00 in0.0 mm 0.00 in0.0 mm 0.00 in0.0 mm
08:30 PM 62.1°F16.7°C 48.2°F9.0°C 59% 3.8 mph W6.1 kmh W 6.0 mph9.7 kmh 29.62 in1003.0 mb 0.00 in0.0 mm 0.00 in0.0 mm 0.00 in0.0 mm
08:35 PM 61.9°F16.6°C 48.2°F9.0°C 60% 3.3 mph WSW5.3 kmh WSW 5.8 mph9.3 kmh 29.62 in1003.0 mb 0.00 in0.0 mm 0.00 in0.0 mm 0.00 in0.0 mm
08:40 PM 61.9°F16.6°C 48.2°F9.0°C 60% 3.0 mph WSW4.8 kmh WSW 5.4 mph8.7 kmh 29.62 in1003.0 mb 0.00 in0.0 mm 0.00 in0.0 mm 0.00 in0.0 mm
08:45 PM 61.7°F16.5°C 48.2°F9.0°C 60% 2.8 mph WSW4.5 kmh WSW 5.4 mph8.7 kmh 29.62 in1003.0 mb 0.00 in0.0 mm 0.00 in0.0 mm 0.00 in0.0 mm
08:50 PM 61.3°F16.3°C 48.2°F9.0°C 60% 2.3 mph WSW3.7 kmh WSW 4.0 mph6.4 kmh 29.62 in1003.0 mb 0.00 in0.0 mm 0.00 in0.0 mm 0.00 in0.0 mm
08:55 PM 61.2°F16.2°C 48.2°F9.0°C 61% 2.8 mph SW4.5 kmh SW 5.6 mph9.0 kmh 29.62 in1003.0 mb 0.00 in0.0 mm 0.00 in0.0 mm 0.00 in0.0 mm
09:00 PM 61.0°F16.1°C 48.2°F9.0°C 62% 2.9 mph SW4.7 kmh SW 5.6 mph9.0 kmh 29.62 in1003.0 mb 0.00 in0.0 mm 0.00 in0.0 mm 0.00 in0.0 mm
09:05 PM 61.0°F16.1°C 48.2°F9.0°C 62% 2.0 mph SW3.2 kmh SW 3.4 mph5.5 kmh 29.62 in1003.0 mb 0.00 in0.0 mm 0.00 in0.0 mm 0.00 in0.0 mm
09:10 PM 60.8°F16.0°C 48.2°F9.0°C 62% 1.6 mph SW2.6 kmh SW 3.4 mph5.5 kmh 29.62 in1003.0 mb 0.00 in0.0 mm 0.00 in0.0 mm 0.00 in0.0 mm
09:15 PM 60.6°F15.9°C 48.2°F9.0°C 62% 2.2 mph WSW3.5 kmh WSW 4.3 mph6.9 kmh 29.62 in1003.0 mb 0.00 in0.0 mm 0.00 in0.0 mm 0.00 in0.0 mm
09:20 PM 60.4°F15.8°C 48.2°F9.0°C 63% 2.3 mph WSW3.7 kmh WSW 4.3 mph6.9 kmh 29.62 in1003.0 mb 0.00 in0.0 mm 0.00 in0.0 mm 0.00 in0.0 mm
09:25 PM 60.3°F15.7°C 48.2°F9.0°C 63% 1.8 mph SW2.9 kmh SW 4.0 mph6.4 kmh 29.62 in1003.0 mb 0.00 in0.0 mm 0.00 in0.0 mm 0.00 in0.0 mm
09:30 PM 60.1°F15.6°C 48.2°F9.0°C 63% 1.7 mph SW2.7 kmh SW 4.0 mph6.4 kmh 29.62 in1003.0 mb 0.00 in0.0 mm 0.00 in0.0 mm 0.00 in0.0 mm
09:35 PM 60.1°F15.6°C 48.2°F9.0°C 63% 1.1 mph SSW1.8 kmh SSW 2.7 mph4.3 kmh 29.62 in1003.0 mb 0.00 in0.0 mm 0.00 in0.0 mm 0.00 in0.0 mm
09:40 PM 59.9°F15.5°C 48.2°F9.0°C 64% 1.0 mph SSE1.6 kmh SSE 2.5 mph4.0 kmh 29.62 in1003.0 mb 0.00 in0.0 mm 0.00 in0.0 mm 0.00 in0.0 mm
09:45 PM 59.7°F15.4°C 48.2°F9.0°C 64% 1.4 mph SE2.3 kmh SE 3.4 mph5.5 kmh 29.62 in1003.0 mb 0.00 in0.0 mm 0.00 in0.0 mm 0.00 in0.0 mm
09:50 PM 59.5°F15.3°C 48.2°F9.0°C 64% 1.7 mph SSW2.7 kmh SSW 4.5 mph7.2 kmh 29.62 in1003.0 mb 0.00 in0.0 mm 0.00 in0.0 mm 0.00 in0.0 mm
09:55 PM 59.4°F15.2°C 48.2°F9.0°C 64% 1.9 mph SW3.1 kmh SW 4.5 mph7.2 kmh 29.62 in1003.0 mb 0.00 in0.0 mm 0.00 in0.0 mm 0.00 in0.0 mm
10:00 PM 59.2°F15.1°C 48.2°F9.0°C 64% 2.0 mph WSW3.2 kmh WSW 3.6 mph5.8 kmh 29.62 in1003.0 mb 0.00 in0.0 mm 0.00 in0.0 mm 0.00 in0.0 mm
10:05 PM 59.0°F15.0°C 48.2°F9.0°C 65% 1.7 mph WSW2.7 kmh WSW 3.4 mph5.5 kmh 29.62 in1003.0 mb 0.00 in0.0 mm 0.00 in0.0 mm 0.00 in0.0 mm
10:10 PM 59.0°F15.0°C 48.2°F9.0°C 65% 1.4 mph WSW2.3 kmh WSW 2.5 mph4.0 kmh 29.62 in1003.0 mb 0.00 in0.0 mm 0.00 in0.0 mm 0.00 in0.0 mm
10:15 PM 58.8°F14.9°C 48.2°F9.0°C 65% 1.7 mph SW2.7 kmh SW 3.6 mph5.8 kmh 29.62 in1003.0 mb 0.00 in0.0 mm 0.00 in0.0 mm 0.00 in0.0 mm
10:20 PM 58.6°F14.8°C 48.2°F9.0°C 66% 2.0 mph SW3.2 kmh SW 4.3 mph6.9 kmh 29.62 in1003.0 mb 0.00 in0.0 mm 0.00 in0.0 mm 0.00 in0.0 mm
10:25 PM 58.5°F14.7°C 48.2°F9.0°C 66% 1.6 mph SW2.6 kmh SW 4.3 mph6.9 kmh 29.62 in1003.0 mb 0.00 in0.0 mm 0.00 in0.0 mm 0.00 in0.0 mm
10:30 PM 58.5°F14.7°C 48.2°F9.0°C 66% 1.3 mph S2.1 kmh S 2.2 mph3.5 kmh 29.62 in1003.0 mb 0.00 in0.0 mm 0.00 in0.0 mm 0.00 in0.0 mm
10:35 PM 58.5°F14.7°C 48.2°F9.0°C 66% 1.6 mph S2.6 kmh S 3.1 mph5.0 kmh 29.62 in1003.0 mb 0.00 in0.0 mm 0.00 in0.0 mm 0.00 in0.0 mm
10:40 PM 58.3°F14.6°C 48.2°F9.0°C 67% 1.7 mph S2.7 kmh S 3.1 mph5.0 kmh 29.62 in1003.0 mb 0.00 in0.0 mm 0.00 in0.0 mm 0.00 in0.0 mm
10:45 PM 58.3°F14.6°C 48.2°F9.0°C 67% 1.3 mph S2.1 kmh S 2.7 mph4.3 kmh 29.62 in1003.0 mb 0.00 in0.0 mm 0.00 in0.0 mm 0.00 in0.0 mm
10:50 PM 57.9°F14.4°C 48.2°F9.0°C 68% 1.0 mph SSE1.6 kmh SSE 2.5 mph4.0 kmh 29.62 in1003.0 mb 0.00 in0.0 mm 0.00 in0.0 mm 0.00 in0.0 mm
10:55 PM 57.7°F14.3°C 48.2°F9.0°C 68% 0.6 mph S1.0 kmh S 2.0 mph3.2 kmh 29.62 in1003.0 mb 0.00 in0.0 mm 0.00 in0.0 mm 0.00 in0.0 mm
11:00 PM 57.7°F14.3°C 48.2°F9.0°C 68% 0.1 mph WSW0.2 kmh WSW 1.6 mph2.6 kmh 29.62 in1003.0 mb 0.00 in0.0 mm 0.00 in0.0 mm 0.00 in0.0 mm
11:05 PM 57.6°F14.2°C 48.2°F9.0°C 68% 0.1 mph S0.2 kmh S 0.9 mph1.4 kmh 29.62 in1003.0 mb 0.00 in0.0 mm 0.00 in0.0 mm 0.00 in0.0 mm
11:10 PM 57.2°F14.0°C 48.2°F9.0°C 68% 0.5 mph WSW0.8 kmh WSW 1.6 mph2.6 kmh 29.62 in1003.0 mb 0.00 in0.0 mm 0.00 in0.0 mm 0.00 in0.0 mm
11:15 PM 57.0°F13.9°C 48.2°F9.0°C 69% 0.9 mph W1.4 kmh W 2.0 mph3.2 kmh 29.62 in1003.0 mb 0.00 in0.0 mm 0.00 in0.0 mm 0.00 in0.0 mm
11:20 PM 57.0°F13.9°C 48.2°F9.0°C 69% 0.9 mph W1.4 kmh W 4.7 mph7.6 kmh 29.62 in1003.0 mb 0.00 in0.0 mm 0.00 in0.0 mm 0.00 in0.0 mm
11:25 PM 57.0°F13.9°C 48.2°F9.0°C 69% 1.6 mph NW2.6 kmh NW 4.7 mph7.6 kmh 29.62 in1003.0 mb 0.00 in0.0 mm 0.00 in0.0 mm 0.00 in0.0 mm
11:30 PM 56.8°F13.8°C 48.2°F9.0°C 70% 2.2 mph NW3.5 kmh NW 3.1 mph5.0 kmh 29.62 in1003.0 mb 0.00 in0.0 mm 0.00 in0.0 mm 0.00 in0.0 mm
11:35 PM 56.7°F13.7°C 48.2°F9.0°C 70% 2.4 mph WNW3.9 kmh WNW 3.8 mph6.1 kmh 29.62 in1003.0 mb 0.00 in0.0 mm 0.00 in0.0 mm 0.00 in0.0 mm
11:40 PM 56.7°F13.7°C 48.2°F9.0°C 70% 2.1 mph WNW3.4 kmh WNW 3.8 mph6.1 kmh 29.62 in1003.0 mb 0.00 in0.0 mm 0.00 in0.0 mm 0.00 in0.0 mm
11:45 PM 56.7°F13.7°C 48.2°F9.0°C 70% 2.2 mph WNW3.5 kmh WNW 3.6 mph5.8 kmh 29.62 in1003.0 mb 0.00 in0.0 mm 0.00 in0.0 mm 0.00 in0.0 mm
11:50 PM 56.7°F13.7°C 48.2°F9.0°C 70% 2.5 mph WNW4.0 kmh WNW 3.8 mph6.1 kmh 29.62 in1003.0 mb 0.00 in0.0 mm 0.00 in0.0 mm 0.00 in0.0 mm
11:55 PM 56.5°F13.6°C 48.2°F9.0°C 71% 1.5 mph WNW2.4 kmh WNW 3.8 mph6.1 kmh 29.62 in1003.0 mb 0.00 in0.0 mm 0.00 in0.0 mm 0.00 in0.0 mm